createdAt,value
2023-03-22T00:03:59.712Z,12.88
2023-03-22T00:09:01.098Z,13.25
2023-03-22T00:14:02.101Z,11.60
2023-03-22T00:19:02.900Z,13.20
2023-03-22T00:24:03.907Z,10.27
2023-03-22T00:29:04.872Z,14.02
2023-03-22T00:34:05.752Z,14.13
2023-03-22T00:39:06.644Z,13.27
2023-03-22T00:44:07.973Z,10.43
2023-03-22T00:49:08.965Z,10.63
2023-03-22T00:54:09.805Z,10.38
2023-03-22T00:59:11.949Z,14.48
2023-03-22T01:04:17.184Z,17.80
2023-03-22T01:09:23.086Z,13.43
2023-03-22T01:14:25.353Z,12.70
2023-03-22T01:19:26.862Z,12.65
2023-03-22T01:24:27.920Z,15.15
2023-03-22T01:29:30.482Z,12.02
2023-03-22T01:34:31.284Z,15.30
2023-03-22T01:39:32.436Z,11.02
2023-03-22T01:44:35.986Z,15.02
2023-03-22T01:49:39.425Z,14.52
2023-03-22T01:59:59.912Z,15.45
2023-03-22T02:05:22.524Z,13.27
2023-03-22T02:10:26.217Z,20.12
2023-03-22T02:16:15.553Z,14.80
2023-03-22T02:23:42.059Z,16.05
2023-03-22T02:29:48.101Z,18.45
2023-03-22T02:35:49.655Z,14.00
2023-03-22T02:41:32.975Z,15.93
2023-03-22T02:46:47.349Z,14.45
2023-03-22T02:52:07.238Z,13.60
2023-03-22T02:57:35.830Z,12.73
2023-03-22T03:02:41.322Z,15.68
2023-03-22T03:07:51.643Z,18.73
2023-03-22T03:12:53.245Z,13.45
2023-03-22T03:18:10.741Z,16.60
2023-03-22T03:24:11.266Z,18.67
2023-03-22T03:30:53.800Z,15.05
2023-03-22T03:36:02.166Z,14.25
2023-03-22T03:41:08.243Z,20.70
2023-03-22T03:46:09.777Z,16.45
2023-03-22T03:51:10.580Z,17.67
2023-03-22T03:56:11.583Z,15.95
2023-03-22T04:01:18.901Z,22.17
2023-03-22T04:06:26.390Z,20.42
2023-03-22T04:11:29.967Z,23.38
2023-03-22T04:16:33.483Z,17.23
2023-03-22T04:21:34.573Z,17.60
2023-03-22T04:26:36.162Z,21.85
2023-03-22T04:31:55.583Z,20.73
2023-03-22T04:43:18.960Z,19.75
2023-03-22T04:48:27.201Z,15.30
2023-03-22T04:53:29.279Z,18.10
2023-03-22T04:58:37.962Z,20.20
2023-03-22T05:03:39.454Z,20.62
2023-03-22T05:08:41.308Z,17.50
2023-03-22T05:13:42.762Z,17.92
2023-03-22T05:18:44.692Z,21.85
2023-03-22T05:23:46.325Z,18.42
2023-03-22T05:28:48.319Z,17.47
2023-03-22T05:33:54.695Z,20.92
2023-03-22T05:38:57.701Z,20.37
2023-03-22T05:43:59.548Z,21.12
2023-03-22T05:49:01.113Z,22.75
2023-03-22T05:54:02.227Z,22.60
2023-03-22T05:59:10.219Z,22.00
2023-03-22T06:04:11.184Z,23.98
2023-03-22T06:09:23.457Z,26.80
2023-03-22T06:14:25.542Z,19.97
2023-03-22T06:19:54.113Z,25.95
2023-03-22T06:24:56.208Z,33.05
2023-03-22T06:30:07.126Z,32.58
2023-03-22T06:35:15.297Z,36.15
2023-03-22T06:40:16.639Z,39.35
2023-03-22T06:45:21.004Z,34.07
2023-03-22T06:50:22.969Z,33.20
2023-03-22T06:56:54.875Z,29.63
2023-03-22T07:01:56.169Z,29.80
2023-03-22T07:06:57.320Z,29.75
2023-03-22T07:12:00.177Z,28.33
2023-03-22T07:17:01.610Z,28.05
2023-03-22T07:22:03.222Z,28.33
2023-03-22T07:27:07.064Z,29.10
2023-03-22T07:32:08.296Z,24.00
2023-03-22T07:37:26.509Z,25.75
2023-03-22T07:42:27.537Z,19.50
2023-03-22T07:47:44.572Z,20.48
2023-03-22T07:53:42.781Z,16.75
2023-03-22T07:58:43.727Z,17.70
2023-03-22T08:03:44.807Z,12.07
2023-03-22T08:08:56.808Z,10.48
2023-03-22T08:13:57.826Z,10.93
2023-03-22T08:18:59.820Z,7.70
2023-03-22T08:24:02.138Z,4.53
2023-03-22T08:29:23.034Z,4.75
2023-03-22T08:34:23.999Z,5.40
2023-03-22T08:39:26.239Z,9.85
2023-03-22T08:44:41.333Z,3.97
2023-03-22T08:49:42.485Z,5.05
2023-03-22T08:54:52.710Z,4.15
2023-03-22T09:01:45.701Z,2.67
2023-03-22T09:06:46.813Z,5.30
2023-03-22T09:11:48.199Z,4.18
2023-03-22T09:16:49.114Z,4.90
2023-03-22T09:21:50.671Z,5.43
2023-03-22T09:27:01.434Z,3.12
2023-03-22T09:32:02.731Z,2.42
2023-03-22T09:37:06.364Z,5.15
2023-03-22T09:42:35.835Z,4.18
2023-03-22T09:47:45.121Z,3.70
2023-03-22T09:52:47.568Z,3.62
2023-03-22T09:58:54.144Z,5.60
2023-03-22T10:04:21.406Z,3.35
2023-03-22T10:09:32.780Z,2.83
2023-03-22T10:14:39.585Z,5.07
2023-03-22T10:19:54.153Z,4.05
2023-03-22T10:24:56.313Z,4.10
2023-03-22T10:30:07.766Z,1.97
2023-03-22T10:35:15.691Z,2.92
2023-03-22T10:40:26.334Z,3.45
2023-03-22T10:45:28.212Z,7.05
2023-03-22T10:50:33.649Z,2.62
2023-03-22T10:55:43.397Z,4.78
2023-03-22T11:00:58.984Z,7.10
2023-03-22T11:06:12.164Z,3.60
2023-03-22T11:11:25.925Z,6.87
2023-03-22T11:16:28.460Z,4.22
2023-03-22T11:21:32.464Z,2.97
2023-03-22T11:26:38.966Z,1.77
2023-03-22T11:31:57.523Z,4.00
2023-03-22T11:37:07.684Z,1.05
2023-03-22T11:42:18.708Z,3.72
2023-03-22T11:47:19.838Z,4.78
2023-03-22T11:52:26.709Z,1.73
2023-03-22T11:57:30.699Z,3.55
2023-03-22T12:02:41.129Z,6.50
2023-03-22T12:07:42.693Z,3.35
2023-03-22T12:12:58.968Z,3.60
2023-03-22T12:18:08.374Z,5.25
2023-03-22T12:23:19.909Z,4.65
2023-03-22T12:28:27.568Z,3.37
2023-03-22T12:33:32.421Z,5.43
2023-03-22T12:38:50.807Z,2.90
2023-03-22T12:43:54.978Z,1.60
2023-03-22T12:49:04.380Z,1.95
2023-03-22T12:54:06.140Z,2.00
2023-03-22T12:59:19.482Z,5.12
2023-03-22T13:07:54.029Z,3.72
2023-03-22T13:14:58.133Z,3.03
2023-03-22T13:20:23.032Z,3.35
2023-03-22T13:25:29.630Z,1.92
2023-03-22T13:30:49.139Z,3.03
2023-03-22T13:35:58.456Z,3.75
2023-03-22T13:41:27.282Z,2.53
2023-03-22T13:46:51.338Z,1.65
2023-03-22T13:51:53.631Z,3.25
2023-03-22T13:57:01.161Z,2.87
2023-03-22T14:02:39.141Z,10.90
2023-03-22T14:07:51.596Z,4.20
2023-03-22T14:14:33.103Z,5.03
2023-03-22T14:19:35.132Z,5.82
